createdAt,value
2024-05-09T00:00:10.487Z,5.40
2024-05-09T00:01:08.038Z,5.20
2024-05-09T00:02:07.967Z,5.30
2024-05-09T00:03:09.004Z,5.20
2024-05-09T00:04:08.035Z,4.40
2024-05-09T00:05:08.026Z,4.00
2024-05-09T00:06:08.167Z,4.40
2024-05-09T00:07:08.355Z,4.90
2024-05-09T00:08:07.927Z,4.80
2024-05-09T00:09:07.867Z,4.00
2024-05-09T00:10:11.813Z,5.10
2024-05-09T00:11:07.934Z,4.40
2024-05-09T00:12:08.076Z,4.90
2024-05-09T00:13:08.284Z,5.20
2024-05-09T00:14:08.339Z,4.10
2024-05-09T00:15:07.813Z,4.90
2024-05-09T00:16:07.813Z,4.80
2024-05-09T00:17:07.867Z,4.30
2024-05-09T00:18:08.445Z,5.10
2024-05-09T00:19:07.924Z,4.30
2024-05-09T00:20:14.394Z,4.50
2024-05-09T00:21:07.893Z,4.60
2024-05-09T00:22:07.808Z,5.70
2024-05-09T00:23:08.139Z,4.10
2024-05-09T00:24:07.698Z,3.90
2024-05-09T00:25:07.738Z,4.50
2024-05-09T00:26:07.756Z,4.60
2024-05-09T00:27:09.037Z,3.90
2024-05-09T00:28:07.756Z,5.50
2024-05-09T00:29:07.732Z,3.60
2024-05-09T00:30:11.547Z,3.50
2024-05-09T00:31:07.648Z,4.10
2024-05-09T00:32:07.769Z,4.40
2024-05-09T00:33:09.157Z,4.30
2024-05-09T00:34:08.075Z,4.50
2024-05-09T00:35:07.705Z,4.40
2024-05-09T00:36:07.568Z,4.50
2024-05-09T00:37:07.579Z,4.10
2024-05-09T00:38:07.664Z,4.50
2024-05-09T00:39:07.543Z,4.10
2024-05-09T00:40:15.039Z,4.00
2024-05-09T00:41:07.639Z,4.20
2024-05-09T00:42:07.542Z,3.70
2024-05-09T00:43:07.544Z,4.20
2024-05-09T00:44:07.542Z,3.80
2024-05-09T00:45:07.489Z,4.00
2024-05-09T00:46:07.534Z,3.80
2024-05-09T00:47:08.122Z,4.00
2024-05-09T00:48:09.012Z,4.10
2024-05-09T00:49:07.499Z,3.50
2024-05-09T00:50:12.648Z,5.00
2024-05-09T00:51:07.592Z,4.00
2024-05-09T00:52:07.437Z,4.70
2024-05-09T00:53:07.452Z,4.60
2024-05-09T00:54:07.405Z,4.50
2024-05-09T00:55:07.376Z,4.10
2024-05-09T00:56:07.461Z,4.30
2024-05-09T00:57:07.383Z,4.30
2024-05-09T00:58:07.364Z,4.10
2024-05-09T00:59:07.734Z,4.30
2024-05-09T01:00:12.180Z,5.40
2024-05-09T01:01:07.359Z,5.80
2024-05-09T01:02:07.382Z,4.40
2024-05-09T01:03:07.963Z,4.90
2024-05-09T01:04:07.416Z,4.70
2024-05-09T01:05:07.291Z,5.00
2024-05-09T01:06:07.338Z,4.60
2024-05-09T01:07:07.262Z,5.00
2024-05-09T01:08:07.440Z,4.80
2024-05-09T01:09:07.227Z,2.90
2024-05-09T01:10:13.911Z,4.70
2024-05-09T01:11:07.294Z,4.00
2024-05-09T01:12:07.274Z,4.60
2024-05-09T01:13:07.589Z,4.10
2024-05-09T01:14:07.230Z,4.00
2024-05-09T01:15:07.160Z,4.90
2024-05-09T01:16:07.188Z,3.70
2024-05-09T01:17:07.696Z,3.40
2024-05-09T01:18:07.445Z,3.40
2024-05-09T01:19:07.160Z,4.90
2024-05-09T01:20:10.657Z,4.80
2024-05-09T01:21:07.161Z,3.90
2024-05-09T01:22:07.158Z,4.60
2024-05-09T01:23:07.424Z,4.90
2024-05-09T01:24:07.453Z,4.70
2024-05-09T01:25:07.054Z,4.20
2024-05-09T01:26:07.056Z,4.90
2024-05-09T01:27:07.046Z,4.90
2024-05-09T01:28:07.135Z,5.10
2024-05-09T01:29:07.038Z,5.00
2024-05-09T01:30:09.461Z,4.80
2024-05-09T01:31:06.990Z,3.10
2024-05-09T01:32:07.069Z,4.00
2024-05-09T01:33:09.083Z,4.50
2024-05-09T01:34:07.018Z,3.90
2024-05-09T01:35:06.973Z,4.80
2024-05-09T01:36:06.941Z,4.50
2024-05-09T01:37:07.288Z,5.10
2024-05-09T01:38:07.082Z,5.30
2024-05-09T01:39:06.904Z,5.00
2024-05-09T01:40:11.979Z,5.00
2024-05-09T01:41:06.940Z,4.30
2024-05-09T01:42:06.892Z,5.50
2024-05-09T01:43:07.126Z,5.00
2024-05-09T01:44:07.182Z,4.40
2024-05-09T01:45:06.828Z,4.80
2024-05-09T01:46:06.871Z,4.80
2024-05-09T01:47:06.923Z,4.50
2024-05-09T01:48:07.167Z,4.80
2024-05-09T01:49:07.017Z,4.00
2024-05-09T01:50:09.145Z,5.40
2024-05-09T01:51:06.849Z,3.80
2024-05-09T01:52:06.801Z,4.10
2024-05-09T01:53:06.846Z,4.50
2024-05-09T01:54:06.750Z,4.30
2024-05-09T01:55:07.050Z,4.60
2024-05-09T01:56:07.102Z,4.90
2024-05-09T01:57:06.723Z,3.80
2024-05-09T01:58:06.739Z,4.90
2024-05-09T01:59:06.844Z,5.60
2024-05-09T02:00:07.941Z,4.50
2024-05-09T02:01:06.697Z,4.40
2024-05-09T02:02:06.885Z,4.60
2024-05-09T02:03:06.880Z,5.90
2024-05-09T02:04:07.050Z,4.60
2024-05-09T02:05:06.923Z,5.00
2024-05-09T02:07:06.646Z,4.90
2024-05-09T02:08:09.618Z,4.70
2024-05-09T02:09:06.576Z,5.00
2024-05-09T02:10:10.971Z,4.80
2024-05-09T02:11:06.647Z,4.80
2024-05-09T02:12:06.764Z,4.90
2024-05-09T02:13:06.544Z,4.90
2024-05-09T02:14:06.577Z,4.60
2024-05-09T02:15:07.966Z,4.40
2024-05-09T02:16:06.538Z,4.80
2024-05-09T02:17:06.569Z,5.50
2024-05-09T02:18:06.729Z,5.10
2024-05-09T02:19:06.570Z,2.90
2024-05-09T02:20:06.639Z,5.20
2024-05-09T02:21:06.573Z,4.00
2024-05-09T02:22:06.823Z,4.00
2024-05-09T02:23:07.094Z,4.80
2024-05-09T02:24:06.428Z,4.70
2024-05-09T02:25:06.417Z,3.90
2024-05-09T02:26:06.453Z,5.00
2024-05-09T02:27:06.489Z,3.90
2024-05-09T02:28:06.418Z,4.90
2024-05-09T02:29:06.884Z,5.70
2024-05-09T02:30:15.144Z,4.70
2024-05-09T02:31:06.389Z,5.20
2024-05-09T02:32:06.391Z,4.50
2024-05-09T02:33:06.921Z,5.40
2024-05-09T02:34:06.475Z,4.40
2024-05-09T02:35:06.346Z,5.40
2024-05-09T02:36:06.699Z,4.70
2024-05-09T02:37:06.322Z,4.80
2024-05-09T02:38:06.393Z,3.80
2024-05-09T02:39:06.265Z,4.70
2024-05-09T02:40:09.119Z,5.40
2024-05-09T02:41:06.280Z,6.10
2024-05-09T02:42:06.238Z,5.00
2024-05-09T02:43:06.935Z,5.00
2024-05-09T02:44:06.251Z,5.10
2024-05-09T02:45:06.229Z,4.70
2024-05-09T02:46:06.234Z,3.90
2024-05-09T02:47:06.486Z,5.20
2024-05-09T02:48:06.504Z,3.90
2024-05-09T02:49:06.316Z,4.10
2024-05-09T02:50:08.162Z,5.20
2024-05-09T02:51:06.282Z,4.00
2024-05-09T02:52:06.190Z,4.80
2024-05-09T02:53:06.348Z,5.10
2024-05-09T02:54:06.107Z,4.70
2024-05-09T02:55:06.095Z,5.30
2024-05-09T02:56:06.106Z,3.50
2024-05-09T02:57:06.477Z,3.80
2024-05-09T02:58:06.099Z,5.00
2024-05-09T02:59:06.073Z,4.10
2024-05-09T03:00:09.706Z,4.10
2024-05-09T03:01:06.143Z,4.10
2024-05-09T03:02:06.158Z,4.70
2024-05-09T03:03:06.464Z,4.10
2024-05-09T03:04:06.279Z,3.90
2024-05-09T03:05:06.095Z,5.20
2024-05-09T03:06:06.001Z,3.40
2024-05-09T03:07:05.971Z,4.30
2024-05-09T03:08:06.038Z,5.70
2024-05-09T03:09:05.944Z,4.30
2024-05-09T03:10:12.203Z,6.40
2024-05-09T03:11:06.055Z,5.60
2024-05-09T03:12:06.011Z,5.10
2024-05-09T03:16:28.680Z,4.20
2024-05-09T03:17:29.759Z,5.00
2024-05-09T03:18:29.725Z,5.20
2024-05-09T03:19:29.731Z,3.80
2024-05-09T03:20:34.213Z,3.90
2024-05-09T03:21:29.598Z,5.00
2024-05-09T03:22:29.842Z,3.20
2024-05-09T03:23:29.618Z,4.40
2024-05-09T03:24:29.538Z,5.00
2024-05-09T03:25:29.530Z,3.80
2024-05-09T03:26:29.621Z,5.40
2024-05-09T03:27:29.534Z,3.30
2024-05-09T03:28:29.502Z,4.50
2024-05-09T03:29:29.606Z,4.80
2024-05-09T03:30:38.080Z,5.50
2024-05-09T03:31:29.473Z,4.20
2024-05-09T03:32:29.562Z,3.60
2024-05-09T03:33:29.723Z,4.10
2024-05-09T03:34:29.710Z,4.40
2024-05-09T03:35:29.517Z,3.90
2024-05-09T03:36:29.411Z,3.90
2024-05-09T03:37:29.388Z,4.50
2024-05-09T03:38:29.437Z,4.40
2024-05-09T03:39:29.421Z,6.20
2024-05-09T03:40:31.057Z,5.30
2024-05-09T03:41:29.776Z,4.60
2024-05-09T03:42:29.368Z,4.10
2024-05-09T03:43:29.331Z,4.80
2024-05-09T03:44:29.401Z,3.80
2024-05-09T03:45:29.374Z,4.50
2024-05-09T03:46:29.325Z,3.90
2024-05-09T03:47:29.420Z,5.00
2024-05-09T03:48:29.741Z,4.50
2024-05-09T03:49:29.432Z,4.10
2024-05-09T03:50:33.956Z,3.60
2024-05-09T03:51:29.298Z,3.70
2024-05-09T03:52:29.274Z,4.30
2024-05-09T03:53:29.332Z,4.60
2024-05-09T03:54:29.215Z,4.60
2024-05-09T03:55:29.509Z,4.20
2024-05-09T03:56:29.272Z,4.70
2024-05-09T03:57:29.223Z,5.30
2024-05-09T03:58:29.168Z,3.50
2024-05-09T03:59:29.209Z,5.00
2024-05-09T04:00:36.860Z,4.20
2024-05-09T04:01:29.223Z,5.10
2024-05-09T04:02:29.470Z,5.30
2024-05-09T04:03:29.293Z,4.60
2024-05-09T04:04:29.208Z,4.40
2024-05-09T04:05:29.206Z,5.70
2024-05-09T04:06:29.094Z,4.90
2024-05-09T04:07:29.080Z,6.10
2024-05-09T04:08:29.083Z,4.90
2024-05-09T04:09:29.393Z,4.40
2024-05-09T04:10:33.337Z,4.40
2024-05-09T04:11:29.120Z,4.10
2024-05-09T04:12:29.074Z,5.40
2024-05-09T04:13:29.022Z,3.70
2024-05-09T04:14:29.098Z,4.80
2024-05-09T04:15:29.076Z,3.70
2024-05-09T04:16:29.257Z,4.20
2024-05-09T04:17:29.157Z,4.40
2024-05-09T04:18:29.094Z,3.20
2024-05-09T04:19:29.075Z,4.40
2024-05-09T04:20:36.863Z,3.60
2024-05-09T04:21:28.980Z,5.00
2024-05-09T04:22:28.928Z,5.10
2024-05-09T04:23:29.203Z,4.00
2024-05-09T04:24:28.936Z,4.50
2024-05-09T04:25:28.889Z,4.80
2024-05-09T04:26:28.973Z,5.40
2024-05-09T04:27:28.927Z,4.80
2024-05-09T04:28:28.854Z,4.40
2024-05-09T04:29:28.874Z,5.50
2024-05-09T04:30:36.851Z,5.30
2024-05-09T04:31:28.862Z,4.40
2024-05-09T04:32:28.912Z,4.80
2024-05-09T04:33:28.961Z,3.80
2024-05-09T04:34:28.881Z,4.80
2024-05-09T04:35:28.835Z,4.80
2024-05-09T04:36:28.778Z,4.70
2024-05-09T04:37:29.031Z,4.00
2024-05-09T04:38:28.780Z,5.10
2024-05-09T04:39:28.784Z,5.00
2024-05-09T04:40:33.927Z,5.40
2024-05-09T04:41:28.819Z,4.50
2024-05-09T04:42:28.707Z,4.10
2024-05-09T04:43:28.707Z,5.30
2024-05-09T04:44:28.974Z,4.40
2024-05-09T04:45:28.707Z,4.10
2024-05-09T04:46:28.661Z,5.40
2024-05-09T04:47:28.765Z,4.30
2024-05-09T04:48:28.779Z,4.80
2024-05-09T04:49:28.754Z,4.80
2024-05-09T04:50:36.162Z,4.00
2024-05-09T04:51:28.647Z,5.00
2024-05-09T04:52:28.593Z,4.90
2024-05-09T04:53:28.602Z,5.50
2024-05-09T04:54:35.805Z,7.00
2024-05-09T04:55:28.574Z,3.90
2024-05-09T04:56:28.634Z,5.20
2024-05-09T04:57:28.942Z,4.00
2024-05-09T04:58:28.542Z,4.40
2024-05-09T04:59:28.596Z,4.50
2024-05-09T05:00:35.305Z,4.20
2024-05-09T05:01:28.534Z,3.50
2024-05-09T05:02:28.565Z,5.90
2024-05-09T05:03:28.678Z,6.00
2024-05-09T05:04:28.763Z,4.90
2024-05-09T05:05:28.500Z,4.60
2024-05-09T05:06:28.446Z,4.50
2024-05-09T05:07:28.451Z,4.20
2024-05-09T05:08:28.500Z,5.10
2024-05-09T05:09:28.457Z,4.40
2024-05-09T05:10:34.014Z,4.90
2024-05-09T05:11:28.554Z,4.00
2024-05-09T05:12:28.467Z,4.20
2024-05-09T05:13:28.381Z,3.80
2024-05-09T05:14:28.434Z,5.30
2024-05-09T05:15:28.390Z,5.30
2024-05-09T05:16:28.342Z,4.70
2024-05-09T05:17:28.861Z,4.60
2024-05-09T05:18:28.659Z,4.80
2024-05-09T05:19:28.606Z,4.20
2024-05-09T05:20:33.505Z,3.90
2024-05-09T05:21:28.418Z,5.30
2024-05-09T05:22:28.282Z,6.30
2024-05-09T05:23:28.389Z,5.30
2024-05-09T05:24:28.264Z,4.30
2024-05-09T05:25:28.254Z,4.30
2024-05-09T05:26:28.301Z,3.70
2024-05-09T05:27:28.275Z,4.10
2024-05-09T05:28:28.228Z,4.80
2024-05-09T05:29:28.538Z,4.20
2024-05-09T05:30:32.901Z,5.10
2024-05-09T05:31:28.242Z,5.60
2024-05-09T05:32:28.403Z,4.50
2024-05-09T05:33:28.477Z,3.10
2024-05-09T05:34:28.153Z,5.10
2024-05-09T05:35:28.349Z,4.10
2024-05-09T05:36:28.133Z,4.30
2024-05-09T05:37:28.137Z,4.60
2024-05-09T05:38:28.808Z,5.90
2024-05-09T05:39:28.142Z,5.50
2024-05-09T05:40:35.646Z,4.70
2024-05-09T05:41:28.164Z,3.90
2024-05-09T05:42:28.085Z,4.70
2024-05-09T05:43:28.103Z,3.50
2024-05-09T05:44:28.086Z,4.60
2024-05-09T05:45:28.085Z,4.80
2024-05-09T05:46:28.028Z,4.60
2024-05-09T05:47:28.514Z,5.20
2024-05-09T05:48:28.077Z,4.80
2024-05-09T05:49:28.084Z,4.30
2024-05-09T05:50:35.345Z,4.40
2024-05-09T05:51:28.043Z,5.00
2024-05-09T05:52:27.981Z,5.70
2024-05-09T05:53:28.022Z,3.70
2024-05-09T05:54:28.208Z,6.00
2024-05-09T05:55:27.942Z,4.70
2024-05-09T05:56:28.027Z,3.60
2024-05-09T05:57:27.974Z,3.90
2024-05-09T05:58:27.896Z,4.20
2024-05-09T05:59:27.926Z,4.20
2024-05-09T06:00:34.466Z,4.50
2024-05-09T06:01:28.009Z,4.90
2024-05-09T06:02:27.935Z,3.90
2024-05-09T06:03:27.931Z,4.90
2024-05-09T06:04:27.876Z,5.20
2024-05-09T06:05:27.941Z,4.30
2024-05-09T06:06:27.844Z,4.20
2024-05-09T06:07:28.106Z,3.00
2024-05-09T06:08:30.295Z,5.50
2024-05-09T06:09:27.828Z,5.40
2024-05-09T06:10:37.173Z,4.40
2024-05-09T06:11:27.871Z,3.80
2024-05-09T06:12:27.834Z,5.00
2024-05-09T06:13:27.791Z,4.90
2024-05-09T06:14:27.854Z,3.90
2024-05-09T06:15:27.761Z,4.30
2024-05-09T06:16:27.714Z,4.50
2024-05-09T06:17:27.791Z,4.20
2024-05-09T06:18:27.926Z,3.90
2024-05-09T06:19:28.130Z,4.10
2024-05-09T06:20:35.181Z,4.30
2024-05-09T06:21:27.728Z,4.40
2024-05-09T06:22:27.646Z,3.30
2024-05-09T06:23:27.717Z,3.90
2024-05-09T06:24:27.636Z,4.30
2024-05-09T06:25:27.634Z,3.70
2024-05-09T06:26:27.643Z,3.90
2024-05-09T06:27:27.637Z,4.50
2024-05-09T06:28:27.609Z,3.10
2024-05-09T06:29:27.712Z,3.30
2024-05-09T06:30:36.621Z,3.20
2024-05-09T06:31:27.587Z,4.70
2024-05-09T06:32:27.707Z,2.80
2024-05-09T06:33:28.058Z,3.90
2024-05-09T06:34:27.647Z,3.40
2024-05-09T06:35:27.603Z,3.50
2024-05-09T06:36:27.501Z,3.10
2024-05-09T06:37:27.779Z,4.10
2024-05-09T06:38:27.699Z,3.80
2024-05-09T06:39:27.513Z,3.00
2024-05-09T06:40:36.226Z,3.00
2024-05-09T06:41:27.560Z,2.30
2024-05-09T06:42:27.472Z,4.40
2024-05-09T06:43:27.456Z,3.50
2024-05-09T06:44:27.892Z,3.60
2024-05-09T06:45:27.473Z,3.10
2024-05-09T06:46:27.405Z,3.30
2024-05-09T06:47:27.509Z,3.50
2024-05-09T06:48:27.650Z,3.60
2024-05-09T06:49:27.463Z,2.90
2024-05-09T06:50:28.453Z,2.80
2024-05-09T06:51:27.410Z,3.10
2024-05-09T06:52:27.416Z,2.60
2024-05-09T06:53:27.404Z,3.40
2024-05-09T06:54:27.396Z,2.90
2024-05-09T06:55:27.319Z,2.90
2024-05-09T06:56:27.407Z,3.00
2024-05-09T06:57:27.645Z,2.70
2024-05-09T06:58:27.294Z,3.40
2024-05-09T06:59:27.355Z,2.80
2024-05-09T07:00:35.319Z,3.10
2024-05-09T07:01:27.319Z,2.80
2024-05-09T07:02:27.344Z,2.80
2024-05-09T07:03:27.346Z,3.90
2024-05-09T07:04:27.675Z,3.50
2024-05-09T07:05:27.272Z,3.30
2024-05-09T07:06:27.223Z,3.20
2024-05-09T07:07:27.209Z,3.10
2024-05-09T07:08:27.241Z,2.80
2024-05-09T07:09:27.224Z,2.80
2024-05-09T07:10:33.037Z,2.70
2024-05-09T07:11:27.338Z,2.70
2024-05-09T07:12:27.211Z,3.40
2024-05-09T07:13:27.154Z,2.40
2024-05-09T07:14:27.194Z,3.50
2024-05-09T07:15:27.218Z,2.90
2024-05-09T07:16:27.121Z,3.00
2024-05-09T07:17:27.571Z,3.10
2024-05-09T07:18:27.370Z,2.80
2024-05-09T07:19:27.236Z,3.20
2024-05-09T07:20:34.119Z,3.10
2024-05-09T07:21:27.222Z,2.50
2024-05-09T07:22:27.067Z,3.20
2024-05-09T07:23:27.144Z,2.30
2024-05-09T07:24:27.062Z,2.70
2024-05-09T07:25:27.111Z,2.40
2024-05-09T07:26:27.154Z,2.70
2024-05-09T07:27:27.065Z,2.70
2024-05-09T07:28:27.055Z,3.40
2024-05-09T07:29:27.372Z,3.00
2024-05-09T07:30:33.043Z,3.10
2024-05-09T07:31:27.010Z,2.50
2024-05-09T07:32:27.296Z,2.60
2024-05-09T07:33:27.323Z,3.30
2024-05-09T07:34:27.090Z,2.50
2024-05-09T07:35:27.262Z,7.30
2024-05-09T07:36:27.267Z,2.30
2024-05-09T07:37:26.971Z,1.90
2024-05-09T07:38:27.022Z,2.10
2024-05-09T07:39:26.994Z,2.20
2024-05-09T07:40:34.787Z,2.80
2024-05-09T07:41:26.997Z,2.50
2024-05-09T07:42:27.025Z,1.90
2024-05-09T07:43:27.210Z,1.80
2024-05-09T07:44:26.974Z,2.20
2024-05-09T07:45:44.922Z,2.90
2024-05-09T07:50:00.659Z,2.20
2024-05-09T07:53:21.065Z,2.10
2024-05-09T07:53:47.473Z,2.00
2024-05-09T07:53:59.554Z,2.70
2024-05-09T07:54:54.355Z,2.70
2024-05-09T07:55:54.552Z,3.00
2024-05-09T07:56:54.775Z,2.80
2024-05-09T07:57:54.145Z,2.00
2024-05-09T07:58:54.623Z,2.40
2024-05-09T07:59:54.131Z,2.00
2024-05-09T08:00:54.324Z,1.80
2024-05-09T08:01:54.182Z,2.10
2024-05-09T08:02:54.150Z,1.80
2024-05-09T08:03:54.533Z,2.20
2024-05-09T08:04:54.171Z,2.20
2024-05-09T08:05:54.179Z,2.10
2024-05-09T08:06:54.084Z,2.30
2024-05-09T08:07:54.463Z,2.30
2024-05-09T08:08:54.128Z,2.40
2024-05-09T08:09:54.127Z,1.70
2024-05-09T08:10:54.172Z,2.20
2024-05-09T08:11:54.082Z,2.10
2024-05-09T08:12:54.135Z,2.70
2024-05-09T08:13:53.973Z,2.40
2024-05-09T08:14:54.281Z,1.90
2024-05-09T08:15:54.053Z,2.30
2024-05-09T08:16:54.006Z,2.20
2024-05-09T08:17:53.969Z,2.30
2024-05-09T08:18:54.094Z,1.90
2024-05-09T08:19:53.902Z,2.20
2024-05-09T08:20:54.044Z,2.60
2024-05-09T08:21:54.169Z,1.70
2024-05-09T08:22:53.956Z,2.00
2024-05-09T08:23:53.881Z,1.60
2024-05-09T08:24:53.901Z,2.00
2024-05-09T08:25:53.836Z,2.10
2024-05-09T08:26:53.963Z,1.60
2024-05-09T08:27:53.855Z,2.30
2024-05-09T08:28:54.138Z,1.60
2024-05-09T08:29:53.856Z,1.80
2024-05-09T08:30:54.070Z,1.30
2024-05-09T08:31:53.837Z,1.40
2024-05-09T08:32:54.033Z,2.30
2024-05-09T08:33:53.887Z,1.80
2024-05-09T08:34:53.922Z,1.80
2024-05-09T08:35:54.070Z,1.60
2024-05-09T08:36:55.057Z,1.50
2024-05-09T08:37:53.876Z,1.60
2024-05-09T08:38:53.879Z,1.40
2024-05-09T08:39:53.745Z,1.90
2024-05-09T08:40:53.737Z,1.80
2024-05-09T08:41:53.667Z,2.00
2024-05-09T08:42:54.073Z,1.40
2024-05-09T08:43:53.675Z,1.60
2024-05-09T08:44:53.698Z,1.80
2024-05-09T08:45:53.717Z,2.00
2024-05-09T08:46:53.676Z,1.50
2024-05-09T08:47:53.767Z,1.50
2024-05-09T08:48:53.874Z,1.70
2024-05-09T08:49:54.031Z,2.20
2024-05-09T08:50:53.901Z,1.90
2024-05-09T08:51:53.730Z,1.80
2024-05-09T08:52:53.600Z,1.80
2024-05-09T08:53:53.559Z,2.90
2024-05-09T08:54:53.634Z,1.60
2024-05-09T08:55:53.632Z,1.90
2024-05-09T08:56:53.620Z,1.40
2024-05-09T08:57:53.602Z,2.20
2024-05-09T08:58:53.512Z,1.20
2024-05-09T08:59:53.626Z,3.00
2024-05-09T09:00:53.706Z,1.60
2024-05-09T09:01:53.668Z,3.30
2024-05-09T09:02:53.822Z,1.60
2024-05-09T09:03:53.838Z,2.30
2024-05-09T09:04:53.665Z,1.80
2024-05-09T09:05:53.564Z,1.50
2024-05-09T09:06:56.321Z,1.50
2024-05-09T09:07:53.481Z,1.70
2024-05-09T09:08:53.615Z,2.30
2024-05-09T09:09:53.514Z,1.60
2024-05-09T09:10:53.439Z,1.80
2024-05-09T09:11:53.506Z,1.90
2024-05-09T09:12:53.415Z,1.80
2024-05-09T09:13:53.462Z,1.60
2024-05-09T09:14:53.441Z,1.70
2024-05-09T09:15:53.439Z,2.60
2024-05-09T09:16:53.406Z,1.60
2024-05-09T09:17:53.473Z,1.90
2024-05-09T09:18:53.611Z,2.10
2024-05-09T09:19:53.458Z,2.00
2024-05-09T09:20:53.493Z,1.80
2024-05-09T09:21:53.618Z,1.80
2024-05-09T09:22:53.369Z,2.00
2024-05-09T09:23:53.305Z,1.20
2024-05-09T09:24:53.331Z,2.70
2024-05-09T09:25:53.322Z,1.80
2024-05-09T09:26:53.401Z,2.20
2024-05-09T09:27:53.286Z,2.00
2024-05-09T09:28:53.286Z,2.30
2024-05-09T09:29:53.202Z,2.20
2024-05-09T09:30:53.271Z,1.80
2024-05-09T09:31:53.314Z,2.10
2024-05-09T09:32:53.349Z,1.60
2024-05-09T09:33:53.767Z,1.80
2024-05-09T09:34:53.238Z,1.70
2024-05-09T09:35:53.277Z,1.80
2024-05-09T09:36:53.230Z,1.90
2024-05-09T09:37:53.197Z,1.90
2024-05-09T09:38:53.236Z,1.50
2024-05-09T09:39:53.115Z,1.40
2024-05-09T09:40:53.571Z,2.20
2024-05-09T09:41:53.088Z,1.80
2024-05-09T09:42:53.130Z,2.10
2024-05-09T09:43:53.203Z,1.40
2024-05-09T09:45:02.102Z,1.90
2024-05-09T09:45:53.746Z,2.30
2024-05-09T09:46:53.163Z,1.70
2024-05-09T09:47:53.624Z,1.50
2024-05-09T09:48:53.164Z,1.90
2024-05-09T09:49:53.134Z,1.60
2024-05-09T09:50:53.089Z,2.00
2024-05-09T09:51:53.065Z,1.60
2024-05-09T09:52:53.133Z,2.00
2024-05-09T09:53:53.028Z,1.40
2024-05-09T09:54:53.327Z,1.70
2024-05-09T09:55:52.966Z,2.40
2024-05-09T09:56:53.058Z,1.70
2024-05-09T09:57:53.458Z,2.90
2024-05-09T09:58:52.949Z,1.80
2024-05-09T09:59:53.022Z,1.60
2024-05-09T10:00:53.083Z,1.60
2024-05-09T10:01:55.441Z,2.00
2024-05-09T10:02:53.178Z,1.40
2024-05-09T10:03:53.175Z,1.90
2024-05-09T10:04:53.383Z,2.50
2024-05-09T10:05:53.054Z,2.40
2024-05-09T10:06:52.973Z,1.70
2024-05-09T10:07:52.916Z,2.30
2024-05-09T10:08:53.161Z,2.00
2024-05-09T10:09:53.145Z,1.80
2024-05-09T10:10:53.089Z,2.50
2024-05-09T10:11:59.682Z,1.70
2024-05-09T10:12:52.981Z,1.90
2024-05-09T10:13:52.893Z,1.80
2024-05-09T10:14:52.833Z,1.60
2024-05-09T10:15:53.756Z,2.00
2024-05-09T10:16:52.777Z,1.90
2024-05-09T10:17:52.987Z,2.10
2024-05-09T10:18:52.999Z,2.30
2024-05-09T10:19:52.886Z,2.20
2024-05-09T10:20:52.805Z,1.80
2024-05-09T10:21:52.842Z,1.60
2024-05-09T10:22:53.015Z,1.50
2024-05-09T10:23:53.035Z,1.40
2024-05-09T10:24:52.739Z,1.60
2024-05-09T10:25:53.436Z,1.60
2024-05-09T10:26:52.753Z,2.10
2024-05-09T10:27:52.846Z,1.50
2024-05-09T10:28:52.728Z,2.20
2024-05-09T10:29:52.950Z,1.80
2024-05-09T10:30:52.652Z,2.10
2024-05-09T10:31:52.697Z,2.60
2024-05-09T10:32:52.764Z,2.00
2024-05-09T10:33:53.336Z,2.30
2024-05-09T10:34:52.654Z,2.00
2024-05-09T10:35:52.599Z,2.30
2024-05-09T10:36:52.953Z,1.90
2024-05-09T10:37:52.608Z,2.10
2024-05-09T10:38:52.640Z,2.80
2024-05-09T10:39:52.602Z,2.90
2024-05-09T10:40:52.612Z,2.20
2024-05-09T10:41:52.581Z,2.00
2024-05-09T10:42:52.743Z,2.10
2024-05-09T10:43:53.854Z,1.90
2024-05-09T10:44:52.470Z,2.10
2024-05-09T10:45:52.484Z,3.00
2024-05-09T10:46:52.510Z,2.20
2024-05-09T10:47:52.753Z,2.00
2024-05-09T10:48:52.655Z,1.50
2024-05-09T10:49:52.680Z,2.10
2024-05-09T10:50:52.847Z,2.40
2024-05-09T10:51:52.465Z,1.60
2024-05-09T10:52:52.433Z,3.00
2024-05-09T10:53:52.551Z,2.10
2024-05-09T10:54:52.379Z,2.00
2024-05-09T10:55:52.397Z,2.20
2024-05-09T10:56:52.366Z,2.10
2024-05-09T10:57:52.776Z,2.40
2024-05-09T10:58:52.340Z,2.60
2024-05-09T10:59:52.303Z,2.00
2024-05-09T11:00:52.442Z,2.00
2024-05-09T11:01:52.536Z,3.00
2024-05-09T11:02:52.512Z,2.30
2024-05-09T11:03:52.594Z,2.60
2024-05-09T11:04:52.660Z,2.30
2024-05-09T11:05:52.453Z,2.80
2024-05-09T11:06:52.313Z,2.80
2024-05-09T11:07:52.383Z,2.70
2024-05-09T11:08:52.396Z,1.90
2024-05-09T11:09:52.339Z,2.10
2024-05-09T11:10:52.357Z,2.80
2024-05-09T11:11:52.665Z,2.20
2024-05-09T11:12:52.376Z,2.60
2024-05-09T11:13:52.228Z,1.80
2024-05-09T11:14:53.024Z,2.10
2024-05-09T11:15:52.225Z,1.90
2024-05-09T11:16:52.255Z,1.50
2024-05-09T11:17:52.308Z,2.20
2024-05-09T11:18:52.768Z,2.00
2024-05-09T11:19:52.313Z,2.20
2024-05-09T11:20:52.507Z,2.00
2024-05-09T11:21:52.113Z,2.30
2024-05-09T11:22:52.168Z,2.00
2024-05-09T11:23:52.845Z,1.80
2024-05-09T11:24:52.203Z,2.40
2024-05-09T11:25:52.372Z,1.80
2024-05-09T11:26:52.887Z,2.20
2024-05-09T11:27:52.102Z,2.30
2024-05-09T11:28:52.073Z,2.50
2024-05-09T11:29:52.844Z,2.20
2024-05-09T11:30:53.010Z,2.20
2024-05-09T11:31:52.119Z,2.80
2024-05-09T11:32:52.412Z,2.80
2024-05-09T11:33:52.142Z,2.70
2024-05-09T11:34:51.921Z,1.60
2024-05-09T11:35:51.969Z,2.90
2024-05-09T11:36:52.067Z,2.10
2024-05-09T11:37:51.980Z,2.40
2024-05-09T11:38:51.950Z,2.20
2024-05-09T11:39:52.185Z,2.50
2024-05-09T11:40:52.833Z,2.30
2024-05-09T11:41:51.980Z,2.40
2024-05-09T11:42:53.413Z,1.80
2024-05-09T11:43:52.039Z,2.50
2024-05-09T11:44:52.357Z,1.40
2024-05-09T11:45:51.993Z,2.90
2024-05-09T11:46:52.438Z,2.20
2024-05-09T11:47:52.046Z,1.80
2024-05-09T11:48:52.073Z,2.00
2024-05-09T11:49:51.844Z,1.60
2024-05-09T11:50:52.392Z,2.40
2024-05-09T11:51:52.023Z,1.80
2024-05-09T11:52:51.824Z,2.10
2024-05-09T11:53:52.057Z,1.80
2024-05-09T11:54:51.806Z,3.00
2024-05-09T11:55:51.813Z,2.80
2024-05-09T11:56:51.879Z,2.60
2024-05-09T11:57:51.799Z,1.90
2024-05-09T11:58:51.741Z,2.60
2024-05-09T11:59:51.805Z,2.60
2024-05-09T12:00:52.176Z,2.20
2024-05-09T12:01:51.789Z,2.50
2024-05-09T12:02:51.816Z,2.30
2024-05-09T12:03:51.945Z,1.80
2024-05-09T12:04:51.889Z,1.90
2024-05-09T12:05:51.906Z,1.70
2024-05-09T12:06:51.712Z,1.80
2024-05-09T12:07:51.920Z,1.90
2024-05-09T12:08:52.642Z,2.00
2024-05-09T12:09:51.625Z,2.20
2024-05-09T12:10:51.895Z,2.50
2024-05-09T12:11:51.679Z,2.00
2024-05-09T12:12:51.639Z,2.10
2024-05-09T12:13:51.622Z,1.60
2024-05-09T12:14:51.985Z,2.10
2024-05-09T12:15:51.626Z,1.70
2024-05-09T12:16:51.520Z,2.00
2024-05-09T12:17:51.702Z,1.90
2024-05-09T12:18:52.613Z,1.70
2024-05-09T12:19:51.610Z,1.80
2024-05-09T12:20:51.818Z,1.70
2024-05-09T12:21:52.055Z,1.80
2024-05-09T12:22:51.513Z,1.70
2024-05-09T12:23:51.581Z,2.20
2024-05-09T12:24:51.601Z,1.50
2024-05-09T12:25:51.505Z,1.70
2024-05-09T12:26:51.496Z,1.60
2024-05-09T12:27:51.510Z,1.60
2024-05-09T12:28:51.808Z,2.10
2024-05-09T12:29:51.458Z,1.90
2024-05-09T12:30:51.444Z,2.40
2024-05-09T12:31:51.455Z,2.00
2024-05-09T12:32:51.556Z,2.70
2024-05-09T12:33:51.542Z,2.30
2024-05-09T12:34:51.420Z,3.00
2024-05-09T12:35:52.233Z,1.50
2024-05-09T12:36:51.400Z,2.70
2024-05-09T12:37:51.309Z,2.40
2024-05-09T12:38:51.386Z,2.00
2024-05-09T12:39:51.394Z,1.80
2024-05-09T12:40:51.443Z,1.90
2024-05-09T12:41:51.235Z,1.60
2024-05-09T12:42:51.555Z,2.70
2024-05-09T12:43:51.345Z,1.90
2024-05-09T12:44:51.274Z,1.80
2024-05-09T12:45:51.233Z,2.10
2024-05-09T12:46:51.254Z,1.80
2024-05-09T12:47:51.291Z,1.90
2024-05-09T12:48:51.365Z,2.10
2024-05-09T12:49:51.554Z,2.40
2024-05-09T12:50:51.309Z,2.70
2024-05-09T12:51:51.248Z,2.40
2024-05-09T12:52:51.159Z,2.50
2024-05-09T12:53:51.202Z,2.20
2024-05-09T12:54:51.187Z,1.90
2024-05-09T12:55:56.870Z,1.80
2024-05-09T12:56:51.186Z,1.80
2024-05-09T12:57:51.308Z,2.90
2024-05-09T12:58:51.069Z,1.90
2024-05-09T12:59:51.177Z,1.90
2024-05-09T13:00:51.239Z,1.90
2024-05-09T13:01:52.147Z,1.50
2024-05-09T13:02:51.448Z,1.90
2024-05-09T13:03:51.322Z,2.00
2024-05-09T13:04:51.227Z,1.50
2024-05-09T13:05:51.140Z,1.90
2024-05-09T13:06:51.965Z,2.20
2024-05-09T13:07:51.596Z,1.80
2024-05-09T13:08:51.051Z,2.60
2024-05-09T13:09:51.131Z,2.50
2024-05-09T13:10:51.044Z,1.90
2024-05-09T13:11:51.082Z,2.50
2024-05-09T13:12:50.973Z,2.00
2024-05-09T13:13:51.028Z,1.80
2024-05-09T13:14:51.846Z,2.30
2024-05-09T13:15:50.941Z,2.50
2024-05-09T13:16:50.946Z,3.10
2024-05-09T13:17:50.947Z,2.10
2024-05-09T13:18:51.355Z,2.20
2024-05-09T13:19:51.020Z,1.90
2024-05-09T13:20:51.043Z,2.20
2024-05-09T13:21:51.421Z,1.40
2024-05-09T13:22:51.179Z,2.40
2024-05-09T13:23:51.023Z,2.90
2024-05-09T13:24:50.964Z,2.00
2024-05-09T13:25:50.873Z,2.70
2024-05-09T13:26:51.941Z,1.80